Time;durP1;ratioP1;P1;durP2;ratioP2;P2;SDS_P1;SDS_P2;PMS_P1;PMS_P2;Temp;Humidity;BMP_temperature;BMP_pressure;BME280_temperature;BME280_humidity;BME280_pressure;Samples;Min_cycle;Max_cycle;Signal;HPM_P1;HPM_P2
2022/08/31 00:05:42;;;;;;;;;9.00;6.75;;;;;22.69;46.88;101468.13;4995947;28;45270;-49
2022/08/31 00:08:07;;;;;;;;;10.50;7.00;;;;;22.60;46.96;101460.19;4995804;28;45290;-50
2022/08/31 00:10:33;;;;;;;;;6.75;6.00;;;;;22.63;46.70;101464.38;4994891;28;45374;-47
2022/08/31 00:12:59;;;;;;;;;8.00;7.00;;;;;22.60;46.94;101462.91;4994876;28;45343;-47
2022/08/31 00:15:25;;;;;;;;;7.50;7.50;;;;;22.53;46.69;101455.81;4995497;28;47195;-50
2022/08/31 00:17:52;;;;;;;;;12.50;8.00;;;;;22.54;47.21;101455.59;4995562;28;45330;-49
2022/08/31 00:20:19;;;;;;;;;7.00;7.00;;;;;22.46;47.00;101455.81;4995722;28;45248;-47
2022/08/31 00:22:45;;;;;;;;;7.00;5.00;;;;;22.51;47.00;101463.31;4995873;28;45310;-46
2022/08/31 00:25:10;;;;;;;;;7.00;5.75;;;;;22.46;47.00;101460.38;4995659;28;45456;-45
2022/08/31 00:27:36;;;;;;;;;8.00;8.00;;;;;22.42;46.80;101455.41;4995485;28;45310;-49
2022/08/31 00:30:03;;;;;;;;;9.75;7.25;;;;;22.41;46.96;101453.69;4995722;28;45389;-50
2022/08/31 00:32:28;;;;;;;;;8.50;8.50;;;;;22.38;47.19;101453.31;4995765;28;45593;-49
2022/08/31 00:34:54;;;;;;;;;5.00;5.00;;;;;22.35;47.09;101456.44;4995449;28;45811;-45
2022/08/31 00:37:19;;;;;;;;;8.25;7.75;;;;;22.23;46.92;101444.53;4995197;27;45340;-50
2022/08/31 00:39:45;;;;;;;;;6.75;6.75;;;;;22.28;46.82;101453.69;4981949;28;45355;-50
2022/08/31 00:42:11;;;;;;;;;10.00;5.75;;;;;22.28;47.23;101455.56;4976049;28;45334;-50
2022/08/31 00:44:37;;;;;;;;;7.75;7.00;;;;;22.25;47.00;101462.25;4975577;28;45918;-43
2022/08/31 00:47:04;;;;;;;;;8.00;7.00;;;;;22.19;47.28;101449.53;4976754;28;45491;-47
2022/08/31 00:49:33;;;;;;;;;7.50;6.75;;;;;22.18;47.52;101439.72;4975718;28;45264;-50
2022/08/31 00:52:21;;;;;;;;;7.50;6.25;;;;;22.13;47.25;101448.47;4976083;28;45382;-48
2022/08/31 00:54:53;;;;;;;;;5.50;5.50;;;;;22.12;47.27;101445.91;4975391;28;48081;-45
2022/08/31 00:57:20;;;;;;;;;5.50;5.00;;;;;22.09;47.26;101447.19;4975417;28;45445;-46
2022/08/31 00:59:47;;;;;;;;;5.50;5.50;;;;;22.05;46.89;101451.34;4975835;28;45324;-49
2022/08/31 01:02:13;;;;;;;;;11.00;7.00;;;;;22.04;47.72;101452.41;4975658;28;45394;-49
2022/08/31 01:04:39;;;;;;;;;8.00;6.25;;;;;21.93;47.62;101436.72;4975376;28;45408;-44
2022/08/31 01:07:06;;;;;;;;;6.00;5.00;;;;;21.90;47.58;101439.84;4975414;28;45299;-47
2022/08/31 01:09:36;;;;;;;;;6.75;6.50;;;;;21.97;47.34;101454.25;4975490;28;45414;-45
2022/08/31 01:12:04;;;;;;;;;6.75;5.00;;;;;21.96;47.47;101455.28;4975623;28;45387;-45
2022/08/31 01:14:30;;;;;;;;;7.50;6.00;;;;;21.93;47.81;101451.09;4975183;28;46894;-45
2022/08/31 01:16:55;;;;;;;;;7.00;6.75;;;;;21.91;47.88;101455.03;4976700;28;45345;-47
2022/08/31 01:19:38;;;;;;;;;5.00;5.00;;;;;21.86;47.70;101458.38;4975448;28;45387;-47
2022/08/31 01:22:09;;;;;;;;;7.00;7.00;;;;;21.78;47.77;101455.84;4975488;28;45277;-46
2022/08/31 01:24:37;;;;;;;;;6.50;6.00;;;;;21.80;47.56;101459.19;4974691;28;46233;-47
2022/08/31 01:27:06;;;;;;;;;9.50;7.50;;;;;21.78;47.68;101457.72;4975085;28;45269;-45
2022/08/31 01:29:33;;;;;;;;;7.00;5.00;;;;;21.76;48.15;101457.94;4975335;28;45483;-48
2022/08/31 01:31:58;;;;;;;;;5.00;5.00;;;;;21.74;47.99;101464.56;4975240;28;45435;-46
2022/08/31 01:34:23;;;;;;;;;6.75;6.00;;;;;21.72;48.43;101458.53;4975155;28;45332;-48
2022/08/31 01:36:50;;;;;;;;;6.50;4.50;;;;;21.70;47.87;101466.00;4974910;28;45418;-47
2022/08/31 01:39:16;;;;;;;;;8.00;6.50;;;;;21.68;48.13;101461.66;4975215;28;45406;-47
2022/08/31 01:41:42;;;;;;;;;5.00;5.00;;;;;21.66;47.96;101466.44;4975334;28;45490;-45
2022/08/31 01:44:15;;;;;;;;;7.50;6.25;;;;;21.63;47.96;101463.31;4974637;28;45351;-46
2022/08/31 01:46:42;;;;;;;;;7.50;6.00;;;;;21.58;47.87;101461.19;4975206;28;45301;-43
2022/08/31 01:49:07;;;;;;;;;5.00;4.00;;;;;21.57;48.46;101459.50;4975113;28;45434;-45
2022/08/31 01:51:33;;;;;;;;;7.50;7.00;;;;;21.56;48.32;101462.44;4975166;28;45482;-46
2022/08/31 01:53:58;;;;;;;;;6.75;5.25;;;;;21.51;48.68;101460.31;4974828;28;45407;-48
2022/08/31 01:56:27;;;;;;;;;5.50;4.75;;;;;21.41;48.56;101449.88;4974708;28;45412;-46
2022/08/31 01:58:53;;;;;;;;;5.00;5.00;;;;;21.49;48.97;101458.84;4974940;28;45321;-45
2022/08/31 02:01:25;;;;;;;;;4.75;4.00;;;;;21.47;48.31;101464.47;4975088;28;45323;-44
2022/08/31 02:03:50;;;;;;;;;8.00;5.00;;;;;21.46;48.80;101468.22;4974413;28;46498;-49
2022/08/31 02:06:16;;;;;;;;;4.50;4.50;;;;;21.43;48.42;101472.16;4974706;28;45360;-45
2022/08/31 02:08:41;;;;;;;;;4.75;4.75;;;;;21.39;48.42;101467.34;4974749;28;45460;-46
2022/08/31 02:11:06;;;;;;;;;5.50;4.75;;;;;21.39;48.65;101468.16;4974838;28;45367;-44
2022/08/31 02:13:33;;;;;;;;;7.75;5.75;;;;;21.37;48.49;101469.44;4974554;28;45282;-46
2022/08/31 02:15:59;;;;;;;;;7.75;7.75;;;;;21.35;48.66;101466.06;4974453;28;45385;-48
2022/08/31 02:18:25;;;;;;;;;5.25;5.25;;;;;21.32;49.24;101470.03;4974864;28;45438;-46
2022/08/31 02:20:51;;;;;;;;;7.00;4.50;;;;;21.24;49.23;101459.34;4975005;28;45417;-47
2022/08/31 02:23:16;;;;;;;;;6.00;6.00;;;;;21.26;49.06;101467.25;4974540;28;46363;-46
2022/08/31 02:25:42;;;;;;;;;9.00;6.00;;;;;21.23;48.58;101464.94;4974818;28;45369;-43
2022/08/31 02:28:07;;;;;;;;;6.75;6.00;;;;;21.21;48.89;101477.84;4974604;28;45232;-45
2022/08/31 02:30:33;;;;;;;;;4.00;4.00;;;;;21.17;49.20;101480.09;4975003;28;45478;-44
2022/08/31 02:32:59;;;;;;;;;7.50;5.00;;;;;21.15;48.93;101482.16;4974208;28;46941;-44
2022/08/31 02:35:24;;;;;;;;;5.25;5.25;;;;;21.10;48.93;101480.03;4974337;28;45443;-44
2022/08/31 02:37:49;;;;;;;;;6.75;5.00;;;;;21.10;49.60;101479.22;4976375;28;45358;-44
2022/08/31 02:40:15;;;;;;;;;5.00;5.00;;;;;21.08;49.09;101476.72;4977444;28;45418;-49
2022/08/31 02:42:40;;;;;;;;;6.00;5.00;;;;;21.03;48.89;101473.78;4977225;28;46186;-44
2022/08/31 02:45:06;;;;;;;;;5.25;5.25;;;;;21.05;49.35;101484.38;4977285;28;45334;-47
2022/08/31 02:47:32;;;;;;;;;7.50;7.50;;;;;20.96;49.61;101466.63;4977273;28;45463;-49
2022/08/31 02:50:01;;;;;;;;;6.50;6.00;;;;;20.99;49.46;101485.19;4977563;28;45466;-43
2022/08/31 02:52:27;;;;;;;;;6.75;6.75;;;;;21.00;49.32;101490.38;4976984;28;46335;-45
2022/08/31 02:54:52;;;;;;;;;6.00;5.00;;;;;20.99;49.32;101483.31;4977272;28;45308;-45
2022/08/31 02:57:18;;;;;;;;;4.00;4.00;;;;;20.91;49.31;101481.59;4977134;28;45388;-47
2022/08/31 02:59:44;;;;;;;;;7.50;6.00;;;;;20.87;49.67;101471.38;4977150;28;45330;-44
2022/08/31 03:02:09;;;;;;;;;6.00;6.00;;;;;20.84;49.63;101469.03;4977069;28;45396;-45
2022/08/31 03:04:34;;;;;;;;;7.00;6.00;;;;;20.94;49.72;101477.63;4976954;28;45252;-49
2022/08/31 03:07:00;;;;;;;;;6.50;5.00;;;;;20.94;50.13;101488.47;4976143;28;45290;-45
2022/08/31 03:09:25;;;;;;;;;6.75;5.50;;;;;20.90;49.78;101487.22;4977370;28;45269;-45
2022/08/31 03:11:51;;;;;;;;;7.50;6.25;;;;;20.89;50.16;101480.94;4976948;28;45986;-46
2022/08/31 03:14:16;;;;;;;;;7.75;5.00;;;;;20.86;49.44;101489.47;4977063;28;45348;-47
2022/08/31 03:16:42;;;;;;;;;5.00;4.00;;;;;20.81;49.54;101485.66;4992037;28;45254;-45
2022/08/31 03:19:08;;;;;;;;;7.50;7.50;;;;;20.81;49.70;101486.50;4977108;28;45357;-44
2022/08/31 03:21:33;;;;;;;;;6.25;5.00;;;;;20.80;50.07;101492.94;4976626;28;46258;-45
2022/08/31 03:23:59;;;;;;;;;5.75;5.25;;;;;20.77;50.20;101490.63;4976531;28;45435;-46
2022/08/31 03:26:24;;;;;;;;;7.00;5.50;;;;;20.75;49.83;101489.16;4977086;28;45432;-44
2022/08/31 03:28:49;;;;;;;;;5.00;4.00;;;;;20.75;49.97;101503.50;4976918;28;45521;-44
2022/08/31 03:31:15;;;;;;;;;7.00;5.75;;;;;20.72;50.21;101505.75;4976580;28;46040;-47
2022/08/31 03:33:40;;;;;;;;;3.75;3.75;;;;;20.71;49.80;101507.63;4976594;28;45305;-45
2022/08/31 03:36:06;;;;;;;;;6.25;5.00;;;;;20.66;50.21;101502.81;4976536;28;45342;-46
2022/08/31 03:38:32;;;;;;;;;6.00;5.25;;;;;20.65;49.88;101506.56;4976688;28;45504;-45
2022/08/31 03:40:57;;;;;;;;;5.50;5.00;;;;;20.54;49.90;101490.84;4976333;28;47339;-45
2022/08/31 03:43:23;;;;;;;;;7.50;5.00;;;;;20.53;50.47;101486.47;4976305;28;45314;-45
2022/08/31 03:45:48;;;;;;;;;6.25;5.00;;;;;20.54;49.95;101490.84;4991596;28;45199;-46
2022/08/31 03:48:14;;;;;;;;;8.75;6.00;;;;;20.58;50.27;101502.94;4976647;28;45527;-46
2022/08/31 03:50:41;;;;;;;;;6.00;6.00;;;;;20.52;50.47;101498.31;4977632;28;45844;-48
2022/08/31 03:53:08;;;;;;;;;6.00;5.50;;;;;20.53;50.35;101505.41;4976378;28;45393;-45
2022/08/31 03:55:35;;;;;;;;;6.25;4.50;;;;;20.53;50.53;101505.41;4976483;28;45249;-46
2022/08/31 03:58:01;;;;;;;;;7.00;5.00;;;;;20.51;50.52;101512.84;4976572;28;45419;-45
2022/08/31 04:00:27;;;;;;;;;5.50;5.00;;;;;20.50;50.30;101510.34;4976134;28;46491;-45
2022/08/31 04:02:52;;;;;;;;;5.50;5.50;;;;;20.49;50.56;101512.22;4976409;28;45406;-45
2022/08/31 04:05:18;;;;;;;;;7.75;5.75;;;;;20.47;50.83;101511.53;4976402;28;45374;-46
2022/08/31 04:07:44;;;;;;;;;5.75;5.75;;;;;20.47;50.37;101516.94;4976575;28;45238;-46
2022/08/31 04:10:13;;;;;;;;;5.50;5.25;;;;;20.42;49.96;101503.16;4976163;28;46151;-45
2022/08/31 04:12:39;;;;;;;;;6.00;5.25;;;;;20.41;50.68;101504.22;4976155;28;45337;-46
2022/08/31 04:15:07;;;;;;;;;8.25;5.25;;;;;20.39;50.40;101506.25;4976204;28;45307;-46
2022/08/31 04:17:33;;;;;;;;;6.50;6.25;;;;;20.39;50.15;101506.25;4976371;28;45545;-49
2022/08/31 04:19:58;;;;;;;;;5.50;5.50;;;;;20.37;50.10;101513.72;4975988;28;45378;-46
2022/08/31 04:22:24;;;;;;;;;6.00;6.00;;;;;20.34;50.65;101509.53;4976088;28;45293;-49
2022/08/31 04:24:49;;;;;;;;;6.00;5.00;;;;;20.32;50.50;101508.06;4976231;28;45425;-50
2022/08/31 04:27:14;;;;;;;;;5.75;5.75;;;;;20.31;50.47;101525.28;4976673;28;45496;-47
2022/08/31 04:29:40;;;;;;;;;8.75;5.00;;;;;20.19;50.80;101497.97;4975952;28;46116;-45
2022/08/31 04:32:05;;;;;;;;;7.00;5.25;;;;;20.29;50.67;101508.44;4975999;28;45308;-47
2022/08/31 04:34:31;;;;;;;;;7.25;7.25;;;;;20.25;50.45;101515.25;4976191;28;45426;-48
2022/08/31 04:36:56;;;;;;;;;8.00;6.00;;;;;20.24;50.85;101508.19;4974686;28;45509;-46
2022/08/31 04:39:22;;;;;;;;;5.00;5.00;;;;;20.22;50.63;101521.03;4975864;28;45432;-44
2022/08/31 04:41:47;;;;;;;;;6.50;5.25;;;;;20.21;50.57;101513.97;4975859;28;45422;-45
2022/08/31 04:44:13;;;;;;;;;8.75;7.00;;;;;20.18;50.72;101507.06;4975618;28;45374;-45
2022/08/31 04:46:40;;;;;;;;;6.25;6.25;;;;;20.18;50.86;101513.34;4976169;28;45422;-46
2022/08/31 04:49:08;;;;;;;;;9.00;5.25;;;;;20.15;50.99;101508.31;4975777;28;46153;-49
2022/08/31 04:51:34;;;;;;;;;5.75;4.75;;;;;20.12;51.30;101507.84;4975870;28;45500;-46
2022/08/31 04:54:04;;;;;;;;;8.50;6.00;;;;;20.11;50.94;101517.00;4975946;28;45353;-44
2022/08/31 04:56:32;;;;;;;;;7.00;5.00;;;;;20.11;50.64;101511.59;4975895;28;45331;-48
2022/08/31 04:59:01;;;;;;;;;6.00;5.00;;;;;20.02;51.00;101491.97;4975074;28;46896;-44
2022/08/31 05:01:30;;;;;;;;;6.25;5.75;;;;;20.08;50.94;101507.38;4975221;28;45453;-45
2022/08/31 05:03:57;;;;;;;;;7.75;5.50;;;;;20.09;50.81;101511.75;4975586;28;45415;-50
2022/08/31 05:06:29;;;;;;;;;8.25;6.25;;;;;20.08;51.27;101515.50;4975795;28;45305;-48
2022/08/31 05:08:58;;;;;;;;;6.00;6.00;;;;;20.08;50.76;101518.19;4975406;28;47139;-48
2022/08/31 05:11:25;;;;;;;;;8.25;6.00;;;;;20.06;50.92;101525.66;4977031;28;45399;-43
2022/08/31 05:13:51;;;;;;;;;9.50;5.00;;;;;19.98;51.33;101508.75;4975439;28;45850;-48
2022/08/31 05:16:18;;;;;;;;;8.25;5.25;;;;;20.04;51.31;101527.69;4975632;28;45521;-49
2022/08/31 05:18:45;;;;;;;;;7.50;5.00;;;;;20.06;51.46;101527.53;4975306;28;46936;-47
2022/08/31 05:21:16;;;;;;;;;8.50;4.25;;;;;20.04;51.30;101527.69;4975530;28;45591;-46
2022/08/31 05:23:44;;;;;;;;;6.00;5.25;;;;;20.05;51.65;101523.13;4975377;28;45534;-48
2022/08/31 05:26:16;;;;;;;;;7.50;5.00;;;;;20.04;51.23;101519.59;4976687;28;45630;-48
2022/08/31 05:28:41;;;;;;;;;5.00;5.00;;;;;20.07;51.33;101526.50;4975061;28;45951;-46
2022/08/31 05:31:07;;;;;;;;;9.25;6.00;;;;;20.08;51.51;101520.06;4975149;28;45390;-45
2022/08/31 05:33:32;;;;;;;;;6.75;5.00;;;;;20.11;51.14;101527.78;4975549;28;45824;-46
2022/08/31 05:36:00;;;;;;;;;7.00;7.00;;;;;20.07;51.28;101521.09;4975539;28;45389;-47
2022/08/31 05:38:26;;;;;;;;;5.00;5.00;;;;;20.09;51.12;101519.88;4974746;28;46289;-45
2022/08/31 05:40:55;;;;;;;;;5.25;5.25;;;;;20.11;51.18;101533.19;4975384;28;45318;-49
2022/08/31 05:43:21;;;;;;;;;6.25;5.50;;;;;20.12;51.10;101524.06;4975274;28;45496;-50
2022/08/31 05:45:47;;;;;;;;;9.75;7.00;;;;;20.12;51.10;101521.34;4975344;28;45322;-47
2022/08/31 05:48:12;;;;;;;;;6.25;6.25;;;;;20.11;51.17;101523.22;4975138;28;45931;-49
2022/08/31 05:50:37;;;;;;;;;7.00;7.00;;;;;20.14;51.10;101521.97;4975022;28;45308;-47
2022/08/31 05:53:03;;;;;;;;;8.00;5.00;;;;;20.16;51.77;101520.78;4975283;28;45546;-48
2022/08/31 05:55:30;;;;;;;;;7.00;4.50;;;;;20.21;51.63;101527.47;4975131;28;45268;-49
2022/08/31 05:57:56;;;;;;;;;7.25;5.75;;;;;20.13;51.10;101506.81;4974912;28;45205;-45
2022/08/31 06:00:22;;;;;;;;;7.75;7.00;;;;;20.25;50.84;101528.78;4974749;28;45370;-48
2022/08/31 06:02:47;;;;;;;;;6.00;6.00;;;;;20.28;51.33;101525.69;4975003;28;45458;-49
2022/08/31 06:05:13;;;;;;;;;8.75;6.50;;;;;20.26;51.15;101522.34;4975294;28;45447;-46
2022/08/31 06:07:38;;;;;;;;;8.00;6.50;;;;;20.30;50.82;101527.16;4974712;28;47210;-47
2022/08/31 06:10:04;;;;;;;;;6.25;6.25;;;;;20.32;51.11;101532.38;4974710;27;45362;-49
2022/08/31 06:12:30;;;;;;;;;8.75;6.25;;;;;20.35;51.29;101534.69;4975129;27;45365;-47
2022/08/31 06:14:56;;;;;;;;;6.75;5.50;;;;;20.37;51.29;101535.34;4974597;28;45290;-48
2022/08/31 06:17:23;;;;;;;;;8.75;8.00;;;;;20.40;50.97;101534.97;4974676;28;45933;-43
2022/08/31 06:19:50;;;;;;;;;8.00;7.00;;;;;20.43;50.69;101534.56;4974597;28;45413;-46
2022/08/31 06:22:16;;;;;;;;;11.00;7.00;;;;;20.47;50.76;101535.84;4974766;28;45298;-47
2022/08/31 06:24:41;;;;;;;;;6.75;5.25;;;;;20.50;50.94;101532.81;4974908;28;45340;-48
2022/08/31 06:27:09;;;;;;;;;9.00;8.00;;;;;20.51;50.72;101525.53;4974471;28;46270;-44
2022/08/31 06:29:34;;;;;;;;;8.50;5.25;;;;;20.57;50.53;101539.13;4974701;28;45375;-46
2022/08/31 06:32:04;;;;;;;;;6.00;6.00;;;;;20.60;50.89;101538.72;4974612;28;45304;-43
2022/08/31 06:34:30;;;;;;;;;6.75;6.75;;;;;20.61;50.75;101529.59;4974662;28;45419;-45
2022/08/31 06:36:55;;;;;;;;;8.75;7.50;;;;;20.66;50.41;101526.31;4974274;28;45380;-47
2022/08/31 06:39:21;;;;;;;;;11.00;7.25;;;;;20.72;50.52;101540.91;4974422;28;45566;-47
2022/08/31 06:41:47;;;;;;;;;7.50;6.00;;;;;20.77;50.13;101539.28;4974429;28;45431;-44
2022/08/31 06:44:13;;;;;;;;;7.25;7.25;;;;;20.80;49.72;101535.38;4974558;28;45228;-44
2022/08/31 06:46:39;;;;;;;;;6.00;6.00;;;;;20.83;50.24;101538.53;4973979;28;45506;-46
2022/08/31 06:49:05;;;;;;;;;9.25;7.00;;;;;20.87;49.89;101541.69;4974299;28;45679;-45
2022/08/31 06:51:35;;;;;;;;;8.00;7.25;;;;;20.96;49.80;101547.78;4974339;28;45316;-43
2022/08/31 06:54:02;;;;;;;;;7.25;7.25;;;;;21.01;50.25;101548.84;4974437;28;45445;-45
2022/08/31 06:56:27;;;;;;;;;9.25;8.75;;;;;21.08;49.95;101544.34;4974042;28;46093;-44
2022/08/31 06:58:53;;;;;;;;;9.50;8.25;;;;;21.15;49.34;101553.34;4973912;28;45443;-47
2022/08/31 07:01:21;;;;;;;;;8.00;8.00;;;;;21.14;49.83;101532.72;4974235;28;45324;-44
2022/08/31 07:03:48;;;;;;;;;8.00;8.00;;;;;21.32;49.52;101540.41;4974449;28;45403;-45
2022/08/31 07:06:22;;;;;;;;;7.25;6.50;;;;;21.50;49.23;101547.16;4973865;28;45495;-45
2022/08/31 07:08:51;;;;;;;;;7.00;7.00;;;;;21.72;48.42;101553.31;4973835;28;45434;-43
2022/08/31 07:11:32;;;;;;;;;6.00;6.00;;;;;22.06;48.11;101545.13;4974027;28;45319;-43
2022/08/31 07:13:59;;;;;;;;;7.00;7.00;;;;;22.78;46.47;101543.63;4974210;28;45319;-44
2022/08/31 07:16:26;;;;;;;;;8.25;7.25;;;;;23.79;44.71;101548.75;4973576;28;46065;-44
2022/08/31 07:18:53;;;;;;;;;9.00;8.00;;;;;24.89;42.23;101535.78;4973934;28;45167;-46
2022/08/31 07:21:25;;;;;;;;;6.00;6.00;;;;;25.87;40.95;101539.63;4973591;28;45329;-46
2022/08/31 07:23:51;;;;;;;;;8.00;8.00;;;;;26.65;39.29;101533.34;4976158;28;45363;-46
2022/08/31 07:26:26;;;;;;;;;7.20;7.20;;;;;27.22;37.79;101520.00;4976755;28;45307;-47
2022/08/31 07:28:53;;;;;;;;;10.20;9.00;;;;;27.93;36.54;101531.63;4976670;28;45347;-46
2022/08/31 07:31:25;;;;;;;;;8.60;7.60;;;;;28.51;35.79;101529.72;4976865;28;45427;-46
2022/08/31 07:33:54;;;;;;;;;10.80;7.00;;;;;29.03;34.58;101519.41;4977128;28;45301;-45
2022/08/31 07:36:20;;;;;;;;;11.40;7.80;;;;;29.62;33.39;101524.31;4976499;28;46038;-46
2022/08/31 07:44:14;;;;;;;;;7.00;7.00;;;;;31.29;31.08;101524.28;4976651;28;45265;-46
2022/08/31 07:46:40;;;;;;;;;6.40;5.80;;;;;31.81;31.03;101525.34;4976134;28;46355;-48
2022/08/31 07:49:12;;;;;;;;;8.50;6.50;;;;;32.37;29.57;101530.19;4976425;28;45335;-47
2022/08/31 07:51:49;;;;;;;;;8.80;7.60;;;;;32.79;29.59;101533.53;4976824;28;45268;-48
2022/08/31 07:54:19;;;;;;;;;8.80;6.00;;;;;33.29;27.94;101525.50;4976590;28;45339;-45
2022/08/31 07:56:47;;;;;;;;;8.40;7.20;;;;;33.62;28.29;101528.69;4976264;28;45369;-51
2022/08/31 07:59:13;;;;;;;;;8.60;6.80;;;;;33.97;27.32;101527.75;4976466;28;45344;-45
2022/08/31 08:01:41;;;;;;;;;9.00;6.00;;;;;34.26;26.80;101523.13;4976304;28;45389;-44
2022/08/31 08:04:07;;;;;;;;;9.20;6.60;;;;;34.54;26.40;101522.66;4976620;28;45440;-46
2022/08/31 08:06:34;;;;;;;;;8.25;5.00;;;;;34.80;26.74;101523.25;4976320;28;45445;-50
2022/08/31 08:09:05;;;;;;;;;10.00;9.00;;;;;35.13;25.85;101522.41;4976257;28;45464;-51
2022/08/31 08:11:31;;;;;;;;;9.20;7.60;;;;;35.39;25.89;101519.34;4976276;28;45361;-47
2022/08/31 08:13:57;;;;;;;;;9.00;7.00;;;;;35.60;25.38;101512.44;4976766;28;45437;-45
2022/08/31 08:16:23;;;;;;;;;9.00;9.00;;;;;35.84;25.21;101512.41;4976113;28;46955;-48
2022/08/31 08:18:49;;;;;;;;;11.25;10.00;;;;;35.69;25.50;101520.91;4977749;28;45501;-44
2022/08/31 08:21:14;;;;;;;;;11.25;7.00;;;;;35.27;25.96;101511.47;4976449;28;45295;-47
2022/08/31 08:23:39;;;;;;;;;9.25;7.50;;;;;34.85;26.50;101501.09;4975010;28;45300;-47
2022/08/31 08:26:08;;;;;;;;;7.25;7.25;;;;;34.86;26.63;101503.56;4976089;28;45352;-46
2022/08/31 08:28:34;;;;;;;;;7.20;6.80;;;;;34.92;26.02;101496.03;4975940;28;45382;-46
2022/08/31 08:31:02;;;;;;;;;8.25;7.00;;;;;35.09;26.71;101506.69;4975964;28;45395;-44
2022/08/31 08:33:29;;;;;;;;;9.20;6.40;;;;;35.05;26.20;101495.38;4976117;28;45375;-47
2022/08/31 08:36:06;;;;;;;;;9.60;7.80;;;;;34.94;26.67;101494.66;4974928;28;45374;-46
2022/08/31 08:38:31;;;;;;;;;8.80;6.60;;;;;35.06;26.18;101502.59;4975548;28;45351;-44
2022/08/31 08:40:59;;;;;;;;;9.25;7.00;;;;;35.27;26.34;101499.56;4977591;28;45311;-47
2022/08/31 08:43:32;;;;;;;;;8.40;7.00;;;;;35.42;26.26;101500.19;4976183;28;45512;-48
2022/08/31 08:46:00;;;;;;;;;9.00;6.80;;;;;35.86;26.06;101504.66;4975629;28;45265;-45
2022/08/31 08:48:28;;;;;;;;;6.00;6.00;;;;;36.22;25.48;101495.81;4975772;28;45748;-45
2022/08/31 08:50:54;;;;;;;;;6.40;6.40;;;;;36.48;25.08;101497.06;4974612;28;45356;-45
2022/08/31 08:53:26;;;;;;;;;7.25;7.00;;;;;36.98;24.54;101499.25;4976019;28;45265;-47
2022/08/31 08:55:52;;;;;;;;;9.60;6.00;;;;;38.07;23.03;101494.75;4975946;28;45287;-45
2022/08/31 08:58:18;;;;;;;;;6.25;6.00;;;;;39.90;21.37;101505.59;4975639;28;45437;-47
2022/08/31 09:00:53;;;;;;;;;9.75;8.50;;;;;42.12;20.52;101509.41;4975779;28;45359;-48
2022/08/31 09:03:47;;;;;;;;;11.40;8.20;;;;;43.96;18.29;101504.84;4977256;28;45418;-49
2022/08/31 09:06:28;;;;;;;;;7.00;5.60;;;;;45.19;17.27;101501.34;4974489;28;45305;-46
2022/08/31 09:09:11;;;;;;;;;6.00;6.00;;;;;46.21;15.95;101507.63;4975841;28;45321;-45
2022/08/31 09:12:17;;;;;;;;;9.00;9.00;;;;;47.15;16.08;101496.03;4975836;28;45232;-46
2022/08/31 09:14:57;;;;;;;;;6.20;6.20;;;;;47.80;14.91;101497.81;4975573;28;45363;-46
2022/08/31 09:17:28;;;;;;;;;9.80;6.40;;;;;48.22;15.42;101489.03;4975310;28;46985;-46
2022/08/31 09:20:00;;;;;;;;;7.60;7.20;;;;;48.73;13.56;101485.50;4975511;28;45416;-48
2022/08/31 09:22:31;;;;;;;;;9.00;6.20;;;;;49.35;13.71;101490.41;4975561;28;45553;-47
2022/08/31 09:24:58;;;;;;;;;7.80;7.80;;;;;49.87;12.85;101480.59;4975628;28;46195;-45
2022/08/31 09:27:45;;;;;;;;;6.00;6.00;;;;;50.54;12.71;101487.66;4975477;28;45979;-46
2022/08/31 09:30:16;;;;;;;;;8.20;6.80;;;;;50.99;12.29;101475.91;4975594;28;45256;-46
2022/08/31 09:32:53;;;;;;;;;8.20;8.00;;;;;51.43;11.66;101468.94;4975345;28;45491;-46
2022/08/31 09:35:39;;;;;;;;;6.40;6.40;;;;;51.96;11.53;101477.22;4975594;28;45527;-48
2022/08/31 09:38:08;;;;;;;;;7.20;5.80;;;;;52.33;10.98;101467.25;4974839;28;47025;-45
2022/08/31 09:40:43;;;;;;;;;6.00;4.40;;;;;52.69;11.72;101464.16;4974783;28;45403;-46
2022/08/31 09:43:36;;;;;;;;;6.80;6.80;;;;;52.83;12.03;101461.97;4975403;28;45438;-47
2022/08/31 09:46:10;;;;;;;;;7.40;5.60;;;;;53.02;11.83;101462.63;4990120;28;45556;-46
2022/08/31 09:48:50;;;;;;;;;5.20;5.20;;;;;53.12;11.19;101461.69;4975092;28;46214;-44
2022/08/31 09:51:28;;;;;;;;;7.00;6.60;;;;;53.31;11.40;101465.94;4975057;28;45494;-46
2022/08/31 09:56:55;;;;;;;;;7.60;5.00;;;;;53.56;10.90;101459.97;4975421;28;45242;-48
2022/08/31 09:59:43;;;;;;;;;5.20;5.20;;;;;53.67;10.81;101462.69;4975050;28;45984;-50
2022/08/31 10:02:28;;;;;;;;;4.20;4.20;;;;;53.83;11.33;101448.63;4975096;28;45343;-50
2022/08/31 10:04:59;;;;;;;;;5.00;4.60;;;;;53.99;10.03;101451.69;4975317;28;45387;-51
2022/08/31 10:07:48;;;;;;;;;6.60;6.20;;;;;54.37;10.44;101448.66;4975346;28;45338;-51
2022/08/31 10:10:24;;;;;;;;;5.80;5.80;;;;;54.77;11.29;101443.06;4974873;28;45354;-51
2022/08/31 10:12:59;;;;;;;;;6.40;4.80;;;;;54.41;10.24;101437.16;4974991;28;45414;-51
2022/08/31 10:15:42;;;;;;;;;15.60;7.60;;;;;54.09;10.11;101438.50;4975230;28;45440;-50
2022/08/31 10:18:14;;;;;;;;;7.00;6.00;;;;;54.11;10.19;101436.00;4975185;28;45295;-51
2022/08/31 10:20:49;;;;;;;;;5.80;5.80;;;;;54.42;10.09;101433.91;4974628;28;46212;-50
2022/08/31 10:23:25;;;;;;;;;6.60;5.20;;;;;54.52;9.73;101424.38;4974525;28;45441;-50
2022/08/31 10:25:57;;;;;;;;;7.20;5.80;;;;;54.40;9.36;101424.97;4974818;28;45409;-53
2022/08/31 10:28:39;;;;;;;;;5.40;5.40;;;;;54.48;9.16;101432.16;4974872;28;45242;-53
2022/08/31 10:31:22;;;;;;;;;5.80;4.80;;;;;54.63;10.08;101440.50;4974452;28;46239;-50
2022/08/31 10:36:40;;;;;;;;;5.20;5.20;;;;;54.62;9.10;101439.69;4974679;28;45635;-50
2022/08/31 10:39:23;;;;;;;;;6.60;6.20;;;;;54.23;10.63;101426.88;4974456;28;45529;-50
2022/08/31 10:41:49;;;;;;;;;8.60;6.20;;;;;54.17;10.10;101427.81;4974353;28;45406;-52
2022/08/31 10:44:25;;;;;;;;;7.00;7.00;;;;;53.94;11.03;101425.72;4974331;28;45297;-51
2022/08/31 10:46:53;;;;;;;;;7.20;6.40;;;;;53.67;10.45;101425.69;4974360;28;45365;-51
2022/08/31 10:49:20;;;;;;;;;6.60;6.00;;;;;53.97;10.68;101430.56;4974652;28;45386;-51
2022/08/31 10:51:51;;;;;;;;;7.80;7.40;;;;;53.94;10.22;101417.19;4974248;28;47129;-52
2022/08/31 10:54:27;;;;;;;;;9.60;8.00;;;;;54.25;9.38;101417.94;4974236;28;45367;-53
2022/08/31 10:57:07;;;;;;;;;6.00;6.00;;;;;54.50;9.96;101411.78;4974270;28;45429;-53
2022/08/31 11:00:00;;;;;;;;;6.60;6.20;;;;;54.72;10.37;101413.03;4977508;28;45378;-52
2022/08/31 11:02:44;;;;;;;;;6.40;5.20;;;;;54.57;10.54;101415.31;4977808;28;46420;-52
2022/08/31 11:05:41;;;;;;;;;9.80;5.80;;;;;54.47;9.55;101418.34;4976551;28;45432;-52
2022/08/31 11:08:35;;;;;;;;;6.40;5.00;;;;;54.63;9.13;101404.25;4977219;28;45331;-50
2022/08/31 11:11:07;;;;;;;;;6.40;6.40;;;;;54.87;9.17;101407.06;4992544;28;45205;-51
2022/08/31 11:13:48;;;;;;;;;7.80;7.00;;;;;54.57;9.10;101408.81;4978368;28;46135;-50
2022/08/31 11:16:35;;;;;;;;;4.00;4.00;;;;;54.37;9.04;101408.78;4976893;28;45182;-52
2022/08/31 11:19:09;;;;;;;;;9.20;7.00;;;;;53.87;10.21;101411.63;4976992;28;45497;-49
2022/08/31 11:21:58;;;;;;;;;10.00;6.20;;;;;53.63;10.44;101399.34;4977129;28;45354;-53
2022/08/31 11:24:55;;;;;;;;;8.80;8.00;;;;;53.82;9.77;101401.50;4977090;28;47107;-52
2022/08/31 11:27:32;;;;;;;;;8.80;7.40;;;;;54.02;10.69;101398.75;5066798;28;45961;-52
2022/08/31 11:30:06;;;;;;;;;9.60;6.60;;;;;53.61;10.08;101399.78;5080007;28;45284;-52
2022/08/31 11:32:46;;;;;;;;;9.60;7.20;;;;;53.40;10.81;101400.84;5079940;27;45531;-52
2022/08/31 11:35:14;;;;;;;;;6.80;6.80;;;;;53.17;10.16;101397.88;5079488;27;47019;-51
2022/08/31 11:37:49;;;;;;;;;8.60;7.20;;;;;52.87;10.85;101388.84;5079564;27;45444;-53
2022/08/31 11:40:40;;;;;;;;;9.00;6.60;;;;;52.80;10.51;101388.13;5079839;27;45306;-53
2022/08/31 11:43:26;;;;;;;;;6.60;6.60;;;;;52.66;11.07;101383.41;5080047;27;45466;-52
2022/08/31 11:45:53;;;;;;;;;7.80;7.20;;;;;52.29;11.21;101381.31;5079019;28;46270;-50
2022/08/31 11:48:52;;;;;;;;;9.00;8.60;;;;;51.81;11.26;101384.88;5079257;27;45282;-51
2022/08/31 11:51:44;;;;;;;;;9.80;6.00;;;;;51.83;10.95;101365.41;5016951;28;45403;-53